sensor_id;sensor_type;location;lat;lon;timestamp;temperature;humidity
10247;DHT22;5168;47.854;7.944;2023-03-29T00:01:07;4.10;99.90
10247;DHT22;5168;47.854;7.944;2023-03-29T00:03:34;4.10;99.90
10247;DHT22;5168;47.854;7.944;2023-03-29T00:06:00;4.60;99.90
10247;DHT22;5168;47.854;7.944;2023-03-29T00:08:28;4.20;99.90
10247;DHT22;5168;47.854;7.944;2023-03-29T00:10:55;4.20;99.90
10247;DHT22;5168;47.854;7.944;2023-03-29T00:13:21;4.10;99.90
10247;DHT22;5168;47.854;7.944;2023-03-29T00:18:12;4.40;99.90
10247;DHT22;5168;47.854;7.944;2023-03-29T00:23:04;4.50;99.90
10247;DHT22;5168;47.854;7.944;2023-03-29T00:25:30;4.40;99.90
10247;DHT22;5168;47.854;7.944;2023-03-29T00:27:55;4.50;99.90
10247;DHT22;5168;47.854;7.944;2023-03-29T00:37:39;4.70;99.90
10247;DHT22;5168;47.854;7.944;2023-03-29T00:40:06;4.80;98.30
10247;DHT22;5168;47.854;7.944;2023-03-29T00:42:35;4.60;99.70
10247;DHT22;5168;47.854;7.944;2023-03-29T00:45:20;5.20;99.30
10247;DHT22;5168;47.854;7.944;2023-03-29T00:47:50;5.10;97.00
10247;DHT22;5168;47.854;7.944;2023-03-29T00:53:02;5.40;96.90
10247;DHT22;5168;47.854;7.944;2023-03-29T00:58:23;5.80;94.30
10247;DHT22;5168;47.854;7.944;2023-03-29T01:01:00;6.10;95.80
10247;DHT22;5168;47.854;7.944;2023-03-29T01:03:33;5.80;96.10
10247;DHT22;5168;47.854;7.944;2023-03-29T01:06:04;5.80;94.20
10247;DHT22;5168;47.854;7.944;2023-03-29T01:08:35;5.70;94.00
10247;DHT22;5168;47.854;7.944;2023-03-29T01:11:25;6.00;93.10
10247;DHT22;5168;47.854;7.944;2023-03-29T01:13:59;6.00;92.30
10247;DHT22;5168;47.854;7.944;2023-03-29T01:16:28;6.20;90.60
10247;DHT22;5168;47.854;7.944;2023-03-29T01:18:55;5.90;92.80
10247;DHT22;5168;47.854;7.944;2023-03-29T01:21:34;6.20;92.10
10247;DHT22;5168;47.854;7.944;2023-03-29T01:24:28;6.00;91.90
10247;DHT22;5168;47.854;7.944;2023-03-29T01:27:16;6.40;91.20
10247;DHT22;5168;47.854;7.944;2023-03-29T01:29:47;6.20;86.40
10247;DHT22;5168;47.854;7.944;2023-03-29T01:32:19;5.80;89.40
10247;DHT22;5168;47.854;7.944;2023-03-29T01:37:33;6.10;92.00
10247;DHT22;5168;47.854;7.944;2023-03-29T01:40:00;5.80;90.60
10247;DHT22;5168;47.854;7.944;2023-03-29T01:45:22;6.10;90.40
10247;DHT22;5168;47.854;7.944;2023-03-29T01:50:34;5.70;90.10
10247;DHT22;5168;47.854;7.944;2023-03-29T01:55:43;5.60;91.10
10247;DHT22;5168;47.854;7.944;2023-03-29T01:58:11;5.50;92.40
10247;DHT22;5168;47.854;7.944;2023-03-29T02:00:39;5.40;92.60
10247;DHT22;5168;47.854;7.944;2023-03-29T02:03:07;5.80;91.00
10247;DHT22;5168;47.854;7.944;2023-03-29T02:05:34;5.60;91.60
10247;DHT22;5168;47.854;7.944;2023-03-29T02:08:03;5.50;92.90
10247;DHT22;5168;47.854;7.944;2023-03-29T02:10:31;5.50;92.10
10247;DHT22;5168;47.854;7.944;2023-03-29T02:12:57;5.80;92.90
10247;DHT22;5168;47.854;7.944;2023-03-29T02:15:23;5.80;92.20
10247;DHT22;5168;47.854;7.944;2023-03-29T02:17:49;6.10;92.80
10247;DHT22;5168;47.854;7.944;2023-03-29T02:27:37;5.80;92.80
10247;DHT22;5168;47.854;7.944;2023-03-29T02:30:04;7.10;92.10
10247;DHT22;5168;47.854;7.944;2023-03-29T02:35:51;6.00;93.30
10247;DHT22;5168;47.854;7.944;2023-03-29T02:38:19;6.30;93.10
10247;DHT22;5168;47.854;7.944;2023-03-29T02:40:46;6.00;93.00
10247;DHT22;5168;47.854;7.944;2023-03-29T02:43:13;5.80;93.00
10247;DHT22;5168;47.854;7.944;2023-03-29T02:45:40;6.20;92.90
10247;DHT22;5168;47.854;7.944;2023-03-29T02:48:09;6.10;93.10
10247;DHT22;5168;47.854;7.944;2023-03-29T02:50:38;6.00;92.40
10247;DHT22;5168;47.854;7.944;2023-03-29T02:53:15;6.00;92.80
10247;DHT22;5168;47.854;7.944;2023-03-29T02:55:42;5.70;90.10
10247;DHT22;5168;47.854;7.944;2023-03-29T02:58:10;5.80;92.50
10247;DHT22;5168;47.854;7.944;2023-03-29T03:00:39;6.60;93.40
10247;DHT22;5168;47.854;7.944;2023-03-29T03:03:08;5.80;92.30
10247;DHT22;5168;47.854;7.944;2023-03-29T03:10:27;6.00;92.60
10247;DHT22;5168;47.854;7.944;2023-03-29T03:17:45;6.10;92.40
10247;DHT22;5168;47.854;7.944;2023-03-29T03:20:11;6.20;90.40
10247;DHT22;5168;47.854;7.944;2023-03-29T03:22:44;6.30;92.70
10247;DHT22;5168;47.854;7.944;2023-03-29T03:25:17;6.30;89.80
10247;DHT22;5168;47.854;7.944;2023-03-29T03:27:49;6.10;92.20
10247;DHT22;5168;47.854;7.944;2023-03-29T03:30:16;6.60;92.80
10247;DHT22;5168;47.854;7.944;2023-03-29T03:32:42;6.30;90.70
10247;DHT22;5168;47.854;7.944;2023-03-29T03:35:11;6.20;92.40
10247;DHT22;5168;47.854;7.944;2023-03-29T03:37:37;6.10;92.00
10247;DHT22;5168;47.854;7.944;2023-03-29T03:40:06;6.60;92.90
10247;DHT22;5168;47.854;7.944;2023-03-29T03:42:37;6.50;90.70
10247;DHT22;5168;47.854;7.944;2023-03-29T03:45:03;6.90;92.90
10247;DHT22;5168;47.854;7.944;2023-03-29T03:47:29;6.50;91.50
10247;DHT22;5168;47.854;7.944;2023-03-29T03:49:55;6.40;92.70
10247;DHT22;5168;47.854;7.944;2023-03-29T03:57:14;6.50;94.50
10247;DHT22;5168;47.854;7.944;2023-03-29T03:59:40;6.30;94.80
10247;DHT22;5168;47.854;7.944;2023-03-29T04:02:05;6.40;95.00
10247;DHT22;5168;47.854;7.944;2023-03-29T04:04:31;6.30;95.10
10247;DHT22;5168;47.854;7.944;2023-03-29T04:09:30;6.50;95.10
10247;DHT22;5168;47.854;7.944;2023-03-29T04:11:58;4.70;92.20
10247;DHT22;5168;47.854;7.944;2023-03-29T04:14:24;6.00;95.70
10247;DHT22;5168;47.854;7.944;2023-03-29T04:16:51;5.90;96.00
10247;DHT22;5168;47.854;7.944;2023-03-29T04:19:17;6.40;95.80
10247;DHT22;5168;47.854;7.944;2023-03-29T04:21:42;6.20;95.30
10247;DHT22;5168;47.854;7.944;2023-03-29T04:24:10;6.50;93.80
10247;DHT22;5168;47.854;7.944;2023-03-29T04:29:02;6.80;93.30
10247;DHT22;5168;47.854;7.944;2023-03-29T04:31:29;6.40;94.90
10247;DHT22;5168;47.854;7.944;2023-03-29T04:33:55;6.70;95.50
10247;DHT22;5168;47.854;7.944;2023-03-29T04:36:21;6.20;95.20
10247;DHT22;5168;47.854;7.944;2023-03-29T04:41:13;6.50;93.60
10247;DHT22;5168;47.854;7.944;2023-03-29T04:43:40;6.10;95.50
10247;DHT22;5168;47.854;7.944;2023-03-29T04:46:06;6.90;95.80
10247;DHT22;5168;47.854;7.944;2023-03-29T04:48:32;6.80;95.60
10247;DHT22;5168;47.854;7.944;2023-03-29T04:50:58;6.90;95.80
10247;DHT22;5168;47.854;7.944;2023-03-29T04:53:24;6.30;95.20
10247;DHT22;5168;47.854;7.944;2023-03-29T04:55:50;6.70;95.30
10247;DHT22;5168;47.854;7.944;2023-03-29T04:58:16;6.10;95.20
10247;DHT22;5168;47.854;7.944;2023-03-29T05:00:42;6.40;95.60
10247;DHT22;5168;47.854;7.944;2023-03-29T05:03:08;6.50;95.20
10247;DHT22;5168;47.854;7.944;2023-03-29T05:05:37;6.60;96.00
10247;DHT22;5168;47.854;7.944;2023-03-29T05:08:03;6.50;94.90
10247;DHT22;5168;47.854;7.944;2023-03-29T05:10:29;6.90;96.50
10247;DHT22;5168;47.854;7.944;2023-03-29T05:12:54;6.50;96.50
10247;DHT22;5168;47.854;7.944;2023-03-29T05:15:21;6.40;95.00
10247;DHT22;5168;47.854;7.944;2023-03-29T05:17:47;6.40;96.30
10247;DHT22;5168;47.854;7.944;2023-03-29T05:20:13;6.60;97.30
10247;DHT22;5168;47.854;7.944;2023-03-29T05:22:39;6.70;98.00
10247;DHT22;5168;47.854;7.944;2023-03-29T05:25:06;6.10;97.70
10247;DHT22;5168;47.854;7.944;2023-03-29T05:27:32;6.60;98.00
10247;DHT22;5168;47.854;7.944;2023-03-29T05:32:24;6.10;97.90
10247;DHT22;5168;47.854;7.944;2023-03-29T05:34:50;6.60;98.50
10247;DHT22;5168;47.854;7.944;2023-03-29T05:37:17;6.60;98.50
10247;DHT22;5168;47.854;7.944;2023-03-29T05:39:43;6.60;98.30
10247;DHT22;5168;47.854;7.944;2023-03-29T05:54:23;6.50;97.70
10247;DHT22;5168;47.854;7.944;2023-03-29T05:56:49;6.60;98.00
10247;DHT22;5168;47.854;7.944;2023-03-29T06:01:42;6.80;97.20
10247;DHT22;5168;47.854;7.944;2023-03-29T06:04:11;7.00;97.00
10247;DHT22;5168;47.854;7.944;2023-03-29T06:06:37;6.60;96.30
10247;DHT22;5168;47.854;7.944;2023-03-29T06:11:30;6.90;97.00
10247;DHT22;5168;47.854;7.944;2023-03-29T06:13:56;6.90;97.00
10247;DHT22;5168;47.854;7.944;2023-03-29T06:16:21;6.60;96.50
10247;DHT22;5168;47.854;7.944;2023-03-29T06:26:06;6.70;95.30
10247;DHT22;5168;47.854;7.944;2023-03-29T06:30:58;7.20;94.40
10247;DHT22;5168;47.854;7.944;2023-03-29T06:33:27;7.10;95.40
10247;DHT22;5168;47.854;7.944;2023-03-29T06:35:53;7.30;97.00
10247;DHT22;5168;47.854;7.944;2023-03-29T06:38:19;6.90;96.60
10247;DHT22;5168;47.854;7.944;2023-03-29T06:40:45;6.80;97.10
10247;DHT22;5168;47.854;7.944;2023-03-29T06:45:39;7.10;94.60
10247;DHT22;5168;47.854;7.944;2023-03-29T06:48:05;7.10;94.60
10247;DHT22;5168;47.854;7.944;2023-03-29T06:50:32;7.10;95.00
10247;DHT22;5168;47.854;7.944;2023-03-29T06:52:58;7.20;97.20
10247;DHT22;5168;47.854;7.944;2023-03-29T06:55:24;7.00;97.20
10247;DHT22;5168;47.854;7.944;2023-03-29T06:57:52;6.70;95.40
10247;DHT22;5168;47.854;7.944;2023-03-29T07:00:19;7.00;95.60
10247;DHT22;5168;47.854;7.944;2023-03-29T07:02:53;7.10;97.50
10247;DHT22;5168;47.854;7.944;2023-03-29T07:05:19;7.40;97.50
10247;DHT22;5168;47.854;7.944;2023-03-29T07:07:45;7.60;97.60
10247;DHT22;5168;47.854;7.944;2023-03-29T07:10:24;7.50;97.00
10247;DHT22;5168;47.854;7.944;2023-03-29T07:12:52;7.40;97.10
10247;DHT22;5168;47.854;7.944;2023-03-29T07:15:19;7.70;96.10
10247;DHT22;5168;47.854;7.944;2023-03-29T07:17:46;7.40;96.40
10247;DHT22;5168;47.854;7.944;2023-03-29T07:20:12;7.40;95.00
10247;DHT22;5168;47.854;7.944;2023-03-29T07:22:42;7.00;96.90
10247;DHT22;5168;47.854;7.944;2023-03-29T07:25:09;7.40;96.30
10247;DHT22;5168;47.854;7.944;2023-03-29T07:27:39;7.50;97.30
10247;DHT22;5168;47.854;7.944;2023-03-29T07:30:07;7.40;97.30
10247;DHT22;5168;47.854;7.944;2023-03-29T07:32:37;7.20;96.90
10247;DHT22;5168;47.854;7.944;2023-03-29T07:35:04;7.50;95.50
10247;DHT22;5168;47.854;7.944;2023-03-29T07:37:31;7.80;97.80
10247;DHT22;5168;47.854;7.944;2023-03-29T07:39:58;7.90;97.40
10247;DHT22;5168;47.854;7.944;2023-03-29T07:44:52;7.60;97.70
10247;DHT22;5168;47.854;7.944;2023-03-29T07:47:19;7.50;97.70
10247;DHT22;5168;47.854;7.944;2023-03-29T07:49:44;7.70;97.50
10247;DHT22;5168;47.854;7.944;2023-03-29T07:52:10;7.80;97.50
10247;DHT22;5168;47.854;7.944;2023-03-29T07:57:02;8.20;96.80
10247;DHT22;5168;47.854;7.944;2023-03-29T08:01:54;7.90;97.80
10247;DHT22;5168;47.854;7.944;2023-03-29T08:04:19;8.20;98.20
10247;DHT22;5168;47.854;7.944;2023-03-29T08:06:45;8.50;98.10
10247;DHT22;5168;47.854;7.944;2023-03-29T08:09:11;8.20;97.20
10247;DHT22;5168;47.854;7.944;2023-03-29T08:11:37;8.80;97.50
10247;DHT22;5168;47.854;7.944;2023-03-29T08:14:05;8.30;98.20
10247;DHT22;5168;47.854;7.944;2023-03-29T08:21:24;8.20;97.70
10247;DHT22;5168;47.854;7.944;2023-03-29T08:23:49;8.90;96.80
10247;DHT22;5168;47.854;7.944;2023-03-29T08:28:41;9.00;95.00
10247;DHT22;5168;47.854;7.944;2023-03-29T08:33:36;9.10;97.70
10247;DHT22;5168;47.854;7.944;2023-03-29T08:36:03;9.00;96.30
10247;DHT22;5168;47.854;7.944;2023-03-29T08:38:29;8.90;94.10
10247;DHT22;5168;47.854;7.944;2023-03-29T08:40:55;9.30;97.00
10247;DHT22;5168;47.854;7.944;2023-03-29T08:43:59;9.50;96.10
10247;DHT22;5168;47.854;7.944;2023-03-29T08:46:43;8.90;95.80
10247;DHT22;5168;47.854;7.944;2023-03-29T08:49:11;8.90;96.10
10247;DHT22;5168;47.854;7.944;2023-03-29T08:51:41;8.50;95.80
10247;DHT22;5168;47.854;7.944;2023-03-29T08:54:16;9.20;97.60
10247;DHT22;5168;47.854;7.944;2023-03-29T08:56:45;9.00;94.80
10247;DHT22;5168;47.854;7.944;2023-03-29T08:59:31;9.30;96.10
10247;DHT22;5168;47.854;7.944;2023-03-29T09:01:58;8.90;94.20
10247;DHT22;5168;47.854;7.944;2023-03-29T09:04:35;9.10;95.30
10247;DHT22;5168;47.854;7.944;2023-03-29T09:07:04;8.80;95.00
10247;DHT22;5168;47.854;7.944;2023-03-29T09:09:34;9.00;93.00
10247;DHT22;5168;47.854;7.944;2023-03-29T09:20:59;9.30;94.20
10247;DHT22;5168;47.854;7.944;2023-03-29T09:23:43;9.40;94.40
10247;DHT22;5168;47.854;7.944;2023-03-29T09:32:05;8.50;94.20
10247;DHT22;5168;47.854;7.944;2023-03-29T09:34:43;8.70;94.30
10247;DHT22;5168;47.854;7.944;2023-03-29T09:37:13;8.90;93.60
10247;DHT22;5168;47.854;7.944;2023-03-29T09:39:45;9.20;93.20
10247;DHT22;5168;47.854;7.944;2023-03-29T09:42:12;9.20;93.50
10247;DHT22;5168;47.854;7.944;2023-03-29T09:44:59;9.00;92.20
10247;DHT22;5168;47.854;7.944;2023-03-29T09:47:32;9.00;92.80
10247;DHT22;5168;47.854;7.944;2023-03-29T09:50:05;9.20;92.10
10247;DHT22;5168;47.854;7.944;2023-03-29T09:52:32;8.90;93.40
10247;DHT22;5168;47.854;7.944;2023-03-29T09:55:03;9.10;92.10
10247;DHT22;5168;47.854;7.944;2023-03-29T09:57:30;8.90;94.00
10247;DHT22;5168;47.854;7.944;2023-03-29T09:59:56;9.10;93.30
10247;DHT22;5168;47.854;7.944;2023-03-29T10:04:53;9.50;93.30
10247;DHT22;5168;47.854;7.944;2023-03-29T10:09:47;9.20;92.20
10247;DHT22;5168;47.854;7.944;2023-03-29T10:12:15;9.10;93.00
10247;DHT22;5168;47.854;7.944;2023-03-29T10:14:47;9.50;93.60
10247;DHT22;5168;47.854;7.944;2023-03-29T10:17:25;9.60;93.60
10247;DHT22;5168;47.854;7.944;2023-03-29T10:19:58;9.90;93.90
10247;DHT22;5168;47.854;7.944;2023-03-29T10:22:35;9.60;93.10
10247;DHT22;5168;47.854;7.944;2023-03-29T10:25:03;9.60;93.80
10247;DHT22;5168;47.854;7.944;2023-03-29T10:27:30;9.80;90.60
10247;DHT22;5168;47.854;7.944;2023-03-29T10:29:59;9.70;91.20
10247;DHT22;5168;47.854;7.944;2023-03-29T10:32:30;9.80;90.20
10247;DHT22;5168;47.854;7.944;2023-03-29T10:35:08;9.80;91.80
10247;DHT22;5168;47.854;7.944;2023-03-29T10:37:41;10.20;91.50
10247;DHT22;5168;47.854;7.944;2023-03-29T10:40:29;9.80;91.60
10247;DHT22;5168;47.854;7.944;2023-03-29T10:43:20;10.00;92.80
10247;DHT22;5168;47.854;7.944;2023-03-29T10:45:53;9.60;93.20
10247;DHT22;5168;47.854;7.944;2023-03-29T10:48:24;9.70;94.10
10247;DHT22;5168;47.854;7.944;2023-03-29T10:50:50;10.70;94.60
10247;DHT22;5168;47.854;7.944;2023-03-29T11:12:27;11.50;88.70
10247;DHT22;5168;47.854;7.944;2023-03-29T11:15:48;11.70;88.30
10247;DHT22;5168;47.854;7.944;2023-03-29T11:20:42;12.30;83.10
10247;DHT22;5168;47.854;7.944;2023-03-29T11:23:20;12.40;83.90
10247;DHT22;5168;47.854;7.944;2023-03-29T11:26:03;12.40;79.40
10247;DHT22;5168;47.854;7.944;2023-03-29T11:41:43;13.40;83.20
10247;DHT22;5168;47.854;7.944;2023-03-29T11:44:19;13.70;83.00
10247;DHT22;5168;47.854;7.944;2023-03-29T11:47:00;13.60;82.00
10247;DHT22;5168;47.854;7.944;2023-03-29T11:49:34;13.80;80.00
10247;DHT22;5168;47.854;7.944;2023-03-29T11:52:12;13.10;81.60
10247;DHT22;5168;47.854;7.944;2023-03-29T11:57:28;13.80;75.20
10247;DHT22;5168;47.854;7.944;2023-03-29T12:00:15;13.50;74.80
10247;DHT22;5168;47.854;7.944;2023-03-29T12:02:48;13.70;77.40
10247;DHT22;5168;47.854;7.944;2023-03-29T12:05:29;13.40;79.70
10247;DHT22;5168;47.854;7.944;2023-03-29T12:08:03;13.10;77.50
10247;DHT22;5168;47.854;7.944;2023-03-29T12:10:38;13.40;80.70
10247;DHT22;5168;47.854;7.944;2023-03-29T12:13:23;13.70;80.10
10247;DHT22;5168;47.854;7.944;2023-03-29T12:18:43;13.30;80.40
10247;DHT22;5168;47.854;7.944;2023-03-29T12:21:19;13.40;77.30
10247;DHT22;5168;47.854;7.944;2023-03-29T12:23:46;13.40;80.30
10247;DHT22;5168;47.854;7.944;2023-03-29T12:29:18;13.50;79.40
10247;DHT22;5168;47.854;7.944;2023-03-29T12:34:49;13.70;78.00
10247;DHT22;5168;47.854;7.944;2023-03-29T12:37:36;14.00;82.50
10247;DHT22;5168;47.854;7.944;2023-03-29T12:40:19;13.90;77.60
10247;DHT22;5168;47.854;7.944;2023-03-29T12:42:58;14.00;79.00
10247;DHT22;5168;47.854;7.944;2023-03-29T12:45:46;13.80;82.10
10247;DHT22;5168;47.854;7.944;2023-03-29T12:48:24;13.80;82.90
10247;DHT22;5168;47.854;7.944;2023-03-29T12:50:54;13.90;81.80
10247;DHT22;5168;47.854;7.944;2023-03-29T12:53:31;13.70;84.30
10247;DHT22;5168;47.854;7.944;2023-03-29T12:58:50;13.80;85.80
10247;DHT22;5168;47.854;7.944;2023-03-29T13:01:27;14.10;87.50
10247;DHT22;5168;47.854;7.944;2023-03-29T13:06:57;13.80;86.20
10247;DHT22;5168;47.854;7.944;2023-03-29T13:09:47;14.20;87.80
10247;DHT22;5168;47.854;7.944;2023-03-29T13:14:59;13.70;89.30
10247;DHT22;5168;47.854;7.944;2023-03-29T13:17:34;13.40;85.40
10247;DHT22;5168;47.854;7.944;2023-03-29T13:25:57;13.60;88.80
10247;DHT22;5168;47.854;7.944;2023-03-29T13:31:38;14.50;86.50
10247;DHT22;5168;47.854;7.944;2023-03-29T13:34:27;14.20;84.00
10247;DHT22;5168;47.854;7.944;2023-03-29T13:39:58;13.60;85.20
10247;DHT22;5168;47.854;7.944;2023-03-29T13:44:51;14.10;83.70
10247;DHT22;5168;47.854;7.944;2023-03-29T13:49:55;14.60;85.80
10247;DHT22;5168;47.854;7.944;2023-03-29T13:52:29;14.40;81.70
10247;DHT22;5168;47.854;7.944;2023-03-29T13:55:12;14.60;84.70
10247;DHT22;5168;47.854;7.944;2023-03-29T13:57:59;15.00;82.90
10247;DHT22;5168;47.854;7.944;2023-03-29T14:00:40;14.80;83.00
10247;DHT22;5168;47.854;7.944;2023-03-29T14:03:12;14.20;84.50
10247;DHT22;5168;47.854;7.944;2023-03-29T14:05:41;15.00;86.20
10247;DHT22;5168;47.854;7.944;2023-03-29T14:08:15;14.80;85.30
10247;DHT22;5168;47.854;7.944;2023-03-29T14:10:44;14.80;83.90
10247;DHT22;5168;47.854;7.944;2023-03-29T14:13:12;15.00;84.90
10247;DHT22;5168;47.854;7.944;2023-03-29T14:15:49;14.80;85.40
10247;DHT22;5168;47.854;7.944;2023-03-29T14:18:19;14.70;82.40
10247;DHT22;5168;47.854;7.944;2023-03-29T14:20:46;15.50;85.10
10247;DHT22;5168;47.854;7.944;2023-03-29T14:23:18;15.30;85.00
10247;DHT22;5168;47.854;7.944;2023-03-29T14:28:22;14.50;84.30
10247;DHT22;5168;47.854;7.944;2023-03-29T14:33:30;14.70;81.90
10247;DHT22;5168;47.854;7.944;2023-03-29T14:36:00;14.60;83.30
10247;DHT22;5168;47.854;7.944;2023-03-29T14:38:28;14.20;85.70
10247;DHT22;5168;47.854;7.944;2023-03-29T14:40:58;15.00;83.30
10247;DHT22;5168;47.854;7.944;2023-03-29T14:43:24;14.20;87.70
10247;DHT22;5168;47.854;7.944;2023-03-29T14:45:54;14.30;85.60
10247;DHT22;5168;47.854;7.944;2023-03-29T14:48:21;14.30;83.00
10247;DHT22;5168;47.854;7.944;2023-03-29T14:50:47;14.60;84.30
10247;DHT22;5168;47.854;7.944;2023-03-29T14:53:21;14.80;84.70
10247;DHT22;5168;47.854;7.944;2023-03-29T14:55:49;14.30;83.20
10247;DHT22;5168;47.854;7.944;2023-03-29T14:58:22;13.80;85.70
10247;DHT22;5168;47.854;7.944;2023-03-29T15:00:50;14.10;82.40
10247;DHT22;5168;47.854;7.944;2023-03-29T15:03:16;13.70;83.20
10247;DHT22;5168;47.854;7.944;2023-03-29T15:05:47;14.10;83.00
10247;DHT22;5168;47.854;7.944;2023-03-29T15:08:18;14.30;84.40
10247;DHT22;5168;47.854;7.944;2023-03-29T15:13:15;13.90;85.40
10247;DHT22;5168;47.854;7.944;2023-03-29T15:18:11;13.80;85.70
10247;DHT22;5168;47.854;7.944;2023-03-29T15:20:40;14.10;88.50
10247;DHT22;5168;47.854;7.944;2023-03-29T15:25:58;13.60;83.30
10247;DHT22;5168;47.854;7.944;2023-03-29T15:28:32;13.30;88.20
10247;DHT22;5168;47.854;7.944;2023-03-29T15:31:01;13.10;85.80
10247;DHT22;5168;47.854;7.944;2023-03-29T15:33:36;13.30;86.60
10247;DHT22;5168;47.854;7.944;2023-03-29T15:36:02;13.70;88.10
10247;DHT22;5168;47.854;7.944;2023-03-29T15:40:54;13.00;90.70
10247;DHT22;5168;47.854;7.944;2023-03-29T15:43:20;12.70;90.50
10247;DHT22;5168;47.854;7.944;2023-03-29T15:45:47;12.70;90.20
10247;DHT22;5168;47.854;7.944;2023-03-29T15:48:24;12.80;90.10
10247;DHT22;5168;47.854;7.944;2023-03-29T15:50:51;13.00;90.00
10247;DHT22;5168;47.854;7.944;2023-03-29T15:53:18;13.10;90.50
10247;DHT22;5168;47.854;7.944;2023-03-29T15:55:49;12.70;91.30
10247;DHT22;5168;47.854;7.944;2023-03-29T15:58:19;13.00;86.80
10247;DHT22;5168;47.854;7.944;2023-03-29T16:00:50;12.60;90.30
10247;DHT22;5168;47.854;7.944;2023-03-29T16:03:17;13.00;90.80
10247;DHT22;5168;47.854;7.944;2023-03-29T16:05:44;12.80;89.20
10247;DHT22;5168;47.854;7.944;2023-03-29T16:08:11;13.00;90.10
10247;DHT22;5168;47.854;7.944;2023-03-29T16:10:38;12.80;87.10
10247;DHT22;5168;47.854;7.944;2023-03-29T16:13:04;12.90;90.20
10247;DHT22;5168;47.854;7.944;2023-03-29T16:15:29;13.00;89.60
10247;DHT22;5168;47.854;7.944;2023-03-29T16:17:56;12.30;91.10
10247;DHT22;5168;47.854;7.944;2023-03-29T16:20:22;12.10;90.50
10247;DHT22;5168;47.854;7.944;2023-03-29T16:22:48;12.10;91.70
10247;DHT22;5168;47.854;7.944;2023-03-29T16:25:19;12.40;91.60
10247;DHT22;5168;47.854;7.944;2023-03-29T16:27:48;12.30;90.00
10247;DHT22;5168;47.854;7.944;2023-03-29T16:30:15;12.20;91.50
10247;DHT22;5168;47.854;7.944;2023-03-29T16:32:41;12.60;91.90
10247;DHT22;5168;47.854;7.944;2023-03-29T16:35:24;12.50;92.80
10247;DHT22;5168;47.854;7.944;2023-03-29T16:45:12;12.10;92.20
10247;DHT22;5168;47.854;7.944;2023-03-29T16:47:38;11.80;93.60
10247;DHT22;5168;47.854;7.944;2023-03-29T16:50:05;11.60;93.40
10247;DHT22;5168;47.854;7.944;2023-03-29T16:52:31;12.10;93.00
10247;DHT22;5168;47.854;7.944;2023-03-29T16:57:23;12.30;95.00
10247;DHT22;5168;47.854;7.944;2023-03-29T16:59:50;11.70;94.90
10247;DHT22;5168;47.854;7.944;2023-03-29T17:02:16;12.00;94.90
10247;DHT22;5168;47.854;7.944;2023-03-29T17:09:33;11.90;95.50
10247;DHT22;5168;47.854;7.944;2023-03-29T17:11:59;11.30;95.70
10247;DHT22;5168;47.854;7.944;2023-03-29T17:14:24;11.40;96.60
10247;DHT22;5168;47.854;7.944;2023-03-29T17:16:52;11.40;95.00
10247;DHT22;5168;47.854;7.944;2023-03-29T17:19:17;11.30;96.80
10247;DHT22;5168;47.854;7.944;2023-03-29T17:21:43;11.50;96.60
10247;DHT22;5168;47.854;7.944;2023-03-29T17:24:08;11.30;95.90
10247;DHT22;5168;47.854;7.944;2023-03-29T17:29:02;11.00;97.00
10247;DHT22;5168;47.854;7.944;2023-03-29T17:31:28;11.20;96.70
10247;DHT22;5168;47.854;7.944;2023-03-29T17:33:54;11.30;96.80
10247;DHT22;5168;47.854;7.944;2023-03-29T17:36:19;11.40;96.30
10247;DHT22;5168;47.854;7.944;2023-03-29T17:38:48;10.90;96.80
10247;DHT22;5168;47.854;7.944;2023-03-29T17:41:15;11.40;97.40
10247;DHT22;5168;47.854;7.944;2023-03-29T17:43:40;10.80;97.10
10247;DHT22;5168;47.854;7.944;2023-03-29T17:48:32;11.10;95.30
10247;DHT22;5168;47.854;7.944;2023-03-29T17:50:58;11.40;95.80
10247;DHT22;5168;47.854;7.944;2023-03-29T17:58:16;11.50;98.20
10247;DHT22;5168;47.854;7.944;2023-03-29T18:00:41;11.60;99.20
10247;DHT22;5168;47.854;7.944;2023-03-29T18:03:07;11.30;99.90
10247;DHT22;5168;47.854;7.944;2023-03-29T18:05:33;11.20;98.70
10247;DHT22;5168;47.854;7.944;2023-03-29T18:07:59;11.40;99.90
10247;DHT22;5168;47.854;7.944;2023-03-29T18:12:52;11.10;99.90
10247;DHT22;5168;47.854;7.944;2023-03-29T18:15:18;11.10;99.90
10247;DHT22;5168;47.854;7.944;2023-03-29T18:17:44;10.90;99.90
10247;DHT22;5168;47.854;7.944;2023-03-29T18:20:11;11.00;99.60
10247;DHT22;5168;47.854;7.944;2023-03-29T18:22:40;10.90;99.90
10247;DHT22;5168;47.854;7.944;2023-03-29T18:25:07;10.90;99.90
10247;DHT22;5168;47.854;7.944;2023-03-29T18:27:37;10.70;99.90
10247;DHT22;5168;47.854;7.944;2023-03-29T18:30:04;10.40;99.90
10247;DHT22;5168;47.854;7.944;2023-03-29T18:32:30;10.50;99.90
10247;DHT22;5168;47.854;7.944;2023-03-29T18:34:56;10.60;99.90
10247;DHT22;5168;47.854;7.944;2023-03-29T18:39:47;10.50;99.90
10247;DHT22;5168;47.854;7.944;2023-03-29T18:42:13;10.10;99.90
10247;DHT22;5168;47.854;7.944;2023-03-29T18:44:39;10.10;99.90
10247;DHT22;5168;47.854;7.944;2023-03-29T18:49:31;9.80;99.90
10247;DHT22;5168;47.854;7.944;2023-03-29T18:51:57;9.80;99.90
10247;DHT22;5168;47.854;7.944;2023-03-29T18:59:15;9.60;99.90
10247;DHT22;5168;47.854;7.944;2023-03-29T19:01:41;9.50;99.90
10247;DHT22;5168;47.854;7.944;2023-03-29T19:04:06;9.80;99.90
10247;DHT22;5168;47.854;7.944;2023-03-29T19:06:32;10.00;99.90
10247;DHT22;5168;47.854;7.944;2023-03-29T19:08:58;10.00;99.90
10247;DHT22;5168;47.854;7.944;2023-03-29T19:11:27;9.80;99.90
10247;DHT22;5168;47.854;7.944;2023-03-29T19:18:47;9.40;99.90
10247;DHT22;5168;47.854;7.944;2023-03-29T19:21:13;9.50;99.90
10247;DHT22;5168;47.854;7.944;2023-03-29T19:23:38;10.30;99.90
10247;DHT22;5168;47.854;7.944;2023-03-29T19:26:05;9.70;99.90
10247;DHT22;5168;47.854;7.944;2023-03-29T19:28:32;9.40;99.90
10247;DHT22;5168;47.854;7.944;2023-03-29T19:30:59;9.70;99.90
10247;DHT22;5168;47.854;7.944;2023-03-29T19:33:25;9.50;99.90
10247;DHT22;5168;47.854;7.944;2023-03-29T19:35:51;9.50;99.90
10247;DHT22;5168;47.854;7.944;2023-03-29T19:40:44;9.80;99.90
10247;DHT22;5168;47.854;7.944;2023-03-29T19:43:10;9.50;99.90
10247;DHT22;5168;47.854;7.944;2023-03-29T19:45:44;9.90;99.90
10247;DHT22;5168;47.854;7.944;2023-03-29T19:48:10;9.70;99.90
10247;DHT22;5168;47.854;7.944;2023-03-29T19:50:40;9.80;99.90
10247;DHT22;5168;47.854;7.944;2023-03-29T19:53:06;9.80;99.90
10247;DHT22;5168;47.854;7.944;2023-03-29T20:02:50;9.70;99.90
10247;DHT22;5168;47.854;7.944;2023-03-29T20:05:16;9.50;99.90
10247;DHT22;5168;47.854;7.944;2023-03-29T20:12:35;10.00;99.90
10247;DHT22;5168;47.854;7.944;2023-03-29T20:15:01;9.70;99.90
10247;DHT22;5168;47.854;7.944;2023-03-29T20:17:27;10.00;99.90
10247;DHT22;5168;47.854;7.944;2023-03-29T20:19:53;9.50;99.90
10247;DHT22;5168;47.854;7.944;2023-03-29T20:22:20;9.60;99.90
10247;DHT22;5168;47.854;7.944;2023-03-29T20:24:45;10.10;99.90
10247;DHT22;5168;47.854;7.944;2023-03-29T20:32:03;9.70;99.90
10247;DHT22;5168;47.854;7.944;2023-03-29T20:34:28;9.60;99.90
10247;DHT22;5168;47.854;7.944;2023-03-29T20:36:54;9.50;99.90
10247;DHT22;5168;47.854;7.944;2023-03-29T20:39:26;9.60;99.90
10247;DHT22;5168;47.854;7.944;2023-03-29T20:41:51;9.50;99.90
10247;DHT22;5168;47.854;7.944;2023-03-29T20:44:18;9.60;99.90
10247;DHT22;5168;47.854;7.944;2023-03-29T20:46:46;9.60;99.90